This is the latest recevied weather packets stored in our database for station/object DL1VED. If no packets are shown the sender has not sent any weather packets the latest 1 day(s).
| Time | Temp. | Humidity | Pressure | Rain* | Wind** | Luminosity | Snow |
|---|---|---|---|---|---|---|---|
| 1777979648 | 19.44° C | 53% | 1007.6 hPa | 0 mm | 0.45 m/s, 257° | - | - |
| 1777978748 | 18.89° C | 56% | 1007.7 hPa | 0 mm | 2.24 m/s, 223° | - | - |
| 1777977848 | 19.44° C | 56% | 1007.8 hPa | 0 mm | 2.24 m/s, 241° | - | - |
| 1777976948 | 18.89° C | 56% | 1007.9 hPa | 0 mm | 1.34 m/s, 237° | - | - |
| 1777976059 | 19.44° C | 56% | 1008 hPa | 0 mm | 0 m/s | - | - |
| 1777975148 | 18.89° C | 58% | 1008 hPa | 0 mm | 0.45 m/s, 150° | - | - |
| 1777974248 | 18.89° C | 57% | 1008 hPa | 0 mm | 0 m/s | - | - |
| 1777973348 | 18.33° C | 58% | 1008.2 hPa | 0 mm | 0.89 m/s, 292° | - | - |
| 1777972448 | 18.33° C | 60% | 1008.2 hPa | 0 mm | 0.89 m/s, 201° | - | - |
| 1777971548 | 18.89° C | 58% | 1008.2 hPa | 0 mm | 2.68 m/s, 258° | - | - |
| 1777970648 | 20° C | 56% | 1008.2 hPa | 0 mm | 0 m/s | - | - |
| 1777969748 | 19.44° C | 53% | 1008.3 hPa | 0 mm | 1.79 m/s, 254° | - | - |
| 1777968848 | 18.89° C | 58% | 1008.3 hPa | 0 mm | 0.89 m/s, 268° | - | - |
| 1777967948 | 18.33° C | 63% | 1008.5 hPa | 0 mm | 1.79 m/s, 226° | - | - |
| 1777967048 | 17.22° C | 68% | 1008.5 hPa | 0 mm | 0 m/s | - | - |
| 1777966148 | 16.11° C | 70% | 1008.7 hPa | 0 mm | 0 m/s | - | - |
| 1777965248 | 16.11° C | 71% | 1008.8 hPa | 0 mm | 0 m/s | - | - |
| 1777964348 | 15.56° C | 71% | 1008.9 hPa | 0 mm | 0 m/s | - | - |
| 1777963448 | 15.56° C | 71% | 1008.8 hPa | 0 mm | 0 m/s | - | - |
| 1777962548 | 15° C | 74% | 1008.9 hPa | 0 mm | 0 m/s | - | - |
| 1777961648 | 15° C | 76% | 1008.9 hPa | 0 mm | 0 m/s | - | - |
| 1777960748 | 14.44° C | 77% | 1009.1 hPa | 0 mm | 0 m/s | - | - |
| 1777959848 | 14.44° C | 78% | 1009 hPa | 0 mm | 0 m/s | - | - |
| 1777958948 | 13.89° C | 79% | 1008.9 hPa | 0 mm | 0 m/s | - | - |
| 1777958048 | 13.33° C | 81% | 1008.9 hPa | 0 mm | 0 m/s | - | - |
* Rain latest hour (hover to see other rain measurements)
** Current wind speed in m/s (hover to see current wind gust speed)